sensor_id;sensor_type;location;lat;lon;timestamp;P1;durP1;ratioP1;P2;durP2;ratioP2
47922;SDS011;33688;44.354;9.228;2023-10-31T00:01:51;2.85;;;1.63;;
47922;SDS011;33688;44.354;9.228;2023-10-31T00:04:17;3.50;;;1.70;;
47922;SDS011;33688;44.354;9.228;2023-10-31T00:06:43;4.65;;;1.52;;
47922;SDS011;33688;44.354;9.228;2023-10-31T00:09:08;3.83;;;2.00;;
47922;SDS011;33688;44.354;9.228;2023-10-31T00:11:36;4.32;;;1.88;;
47922;SDS011;33688;44.354;9.228;2023-10-31T00:14:02;5.65;;;1.70;;
47922;SDS011;33688;44.354;9.228;2023-10-31T00:16:28;3.78;;;1.65;;
47922;SDS011;33688;44.354;9.228;2023-10-31T00:18:55;4.43;;;2.10;;
47922;SDS011;33688;44.354;9.228;2023-10-31T00:21:20;2.58;;;1.20;;
47922;SDS011;33688;44.354;9.228;2023-10-31T00:23:47;5.18;;;2.33;;
47922;SDS011;33688;44.354;9.228;2023-10-31T00:26:15;8.10;;;2.03;;
47922;SDS011;33688;44.354;9.228;2023-10-31T00:28:48;3.13;;;1.70;;
47922;SDS011;33688;44.354;9.228;2023-10-31T00:31:14;3.25;;;2.08;;
47922;SDS011;33688;44.354;9.228;2023-10-31T00:33:39;3.55;;;1.65;;
47922;SDS011;33688;44.354;9.228;2023-10-31T00:36:07;3.58;;;1.27;;
47922;SDS011;33688;44.354;9.228;2023-10-31T00:38:33;3.95;;;2.33;;
47922;SDS011;33688;44.354;9.228;2023-10-31T00:40:59;4.15;;;1.90;;
47922;SDS011;33688;44.354;9.228;2023-10-31T00:43:24;3.40;;;1.40;;
47922;SDS011;33688;44.354;9.228;2023-10-31T00:45:52;2.75;;;1.63;;
47922;SDS011;33688;44.354;9.228;2023-10-31T00:48:19;5.55;;;1.90;;
47922;SDS011;33688;44.354;9.228;2023-10-31T00:50:45;3.00;;;1.60;;
47922;SDS011;33688;44.354;9.228;2023-10-31T00:53:11;2.70;;;1.60;;
47922;SDS011;33688;44.354;9.228;2023-10-31T00:55:38;4.40;;;1.83;;
47922;SDS011;33688;44.354;9.228;2023-10-31T00:58:05;5.80;;;1.98;;
47922;SDS011;33688;44.354;9.228;2023-10-31T01:00:31;3.92;;;1.55;;
47922;SDS011;33688;44.354;9.228;2023-10-31T01:02:59;5.32;;;2.08;;
47922;SDS011;33688;44.354;9.228;2023-10-31T01:05:25;5.53;;;2.20;;
47922;SDS011;33688;44.354;9.228;2023-10-31T01:07:52;5.88;;;2.30;;
47922;SDS011;33688;44.354;9.228;2023-10-31T01:10:17;4.90;;;2.22;;
47922;SDS011;33688;44.354;9.228;2023-10-31T01:12:43;5.88;;;1.80;;
47922;SDS011;33688;44.354;9.228;2023-10-31T01:15:09;4.88;;;2.20;;
47922;SDS011;33688;44.354;9.228;2023-10-31T01:17:35;3.40;;;1.70;;
47922;SDS011;33688;44.354;9.228;2023-10-31T01:20:00;4.45;;;1.63;;
47922;SDS011;33688;44.354;9.228;2023-10-31T01:22:26;6.88;;;2.13;;
47922;SDS011;33688;44.354;9.228;2023-10-31T01:24:52;2.45;;;1.42;;
47922;SDS011;33688;44.354;9.228;2023-10-31T01:27:18;3.88;;;1.83;;
47922;SDS011;33688;44.354;9.228;2023-10-31T01:29:44;8.38;;;2.08;;
47922;SDS011;33688;44.354;9.228;2023-10-31T01:32:10;3.28;;;1.75;;
47922;SDS011;33688;44.354;9.228;2023-10-31T01:34:37;6.45;;;1.90;;
47922;SDS011;33688;44.354;9.228;2023-10-31T01:37:03;4.45;;;1.65;;
47922;SDS011;33688;44.354;9.228;2023-10-31T01:39:29;4.35;;;1.80;;
47922;SDS011;33688;44.354;9.228;2023-10-31T01:41:55;2.95;;;1.55;;
47922;SDS011;33688;44.354;9.228;2023-10-31T01:44:21;2.97;;;1.40;;
47922;SDS011;33688;44.354;9.228;2023-10-31T01:46:47;4.50;;;1.77;;
47922;SDS011;33688;44.354;9.228;2023-10-31T01:49:17;4.25;;;2.05;;
47922;SDS011;33688;44.354;9.228;2023-10-31T01:51:44;5.07;;;1.73;;
47922;SDS011;33688;44.354;9.228;2023-10-31T01:54:11;4.43;;;1.40;;
47922;SDS011;33688;44.354;9.228;2023-10-31T01:56:39;6.13;;;2.28;;
47922;SDS011;33688;44.354;9.228;2023-10-31T01:59:06;4.25;;;1.50;;
47922;SDS011;33688;44.354;9.228;2023-10-31T02:01:35;4.95;;;1.90;;
47922;SDS011;33688;44.354;9.228;2023-10-31T02:04:04;3.38;;;1.60;;
47922;SDS011;33688;44.354;9.228;2023-10-31T02:06:30;4.78;;;1.48;;
47922;SDS011;33688;44.354;9.228;2023-10-31T02:08:56;4.50;;;1.90;;
47922;SDS011;33688;44.354;9.228;2023-10-31T02:11:22;4.97;;;1.55;;
47922;SDS011;33688;44.354;9.228;2023-10-31T02:13:48;3.22;;;1.20;;
47922;SDS011;33688;44.354;9.228;2023-10-31T02:16:15;2.83;;;1.38;;
47922;SDS011;33688;44.354;9.228;2023-10-31T02:18:42;3.38;;;1.58;;
47922;SDS011;33688;44.354;9.228;2023-10-31T02:21:07;4.75;;;1.60;;
47922;SDS011;33688;44.354;9.228;2023-10-31T02:23:33;3.65;;;1.50;;
47922;SDS011;33688;44.354;9.228;2023-10-31T02:25:59;5.03;;;1.45;;
47922;SDS011;33688;44.354;9.228;2023-10-31T02:28:25;3.60;;;1.55;;
47922;SDS011;33688;44.354;9.228;2023-10-31T02:30:53;2.85;;;1.73;;
47922;SDS011;33688;44.354;9.228;2023-10-31T02:33:20;3.63;;;1.60;;
47922;SDS011;33688;44.354;9.228;2023-10-31T02:35:46;5.65;;;1.80;;
47922;SDS011;33688;44.354;9.228;2023-10-31T02:38:13;5.75;;;2.13;;
47922;SDS011;33688;44.354;9.228;2023-10-31T02:40:39;4.53;;;2.40;;
47922;SDS011;33688;44.354;9.228;2023-10-31T02:43:04;3.28;;;1.42;;
47922;SDS011;33688;44.354;9.228;2023-10-31T02:45:33;4.45;;;1.65;;
47922;SDS011;33688;44.354;9.228;2023-10-31T02:47:59;5.55;;;1.80;;
47922;SDS011;33688;44.354;9.228;2023-10-31T02:50:25;4.25;;;1.60;;
47922;SDS011;33688;44.354;9.228;2023-10-31T02:52:50;7.55;;;1.90;;
47922;SDS011;33688;44.354;9.228;2023-10-31T02:55:16;5.75;;;1.50;;
47922;SDS011;33688;44.354;9.228;2023-10-31T02:57:44;4.13;;;1.70;;
47922;SDS011;33688;44.354;9.228;2023-10-31T03:00:10;4.70;;;1.70;;
47922;SDS011;33688;44.354;9.228;2023-10-31T03:02:37;5.03;;;1.88;;
47922;SDS011;33688;44.354;9.228;2023-10-31T03:05:03;3.67;;;1.77;;
47922;SDS011;33688;44.354;9.228;2023-10-31T03:07:29;3.25;;;1.50;;
47922;SDS011;33688;44.354;9.228;2023-10-31T03:09:55;2.75;;;1.30;;
47922;SDS011;33688;44.354;9.228;2023-10-31T03:12:22;4.10;;;1.52;;
47922;SDS011;33688;44.354;9.228;2023-10-31T03:14:50;3.20;;;1.58;;
47922;SDS011;33688;44.354;9.228;2023-10-31T03:17:16;3.35;;;1.50;;
47922;SDS011;33688;44.354;9.228;2023-10-31T03:19:42;3.53;;;1.38;;
47922;SDS011;33688;44.354;9.228;2023-10-31T03:22:07;2.05;;;1.23;;
47922;SDS011;33688;44.354;9.228;2023-10-31T03:24:34;3.25;;;1.60;;
47922;SDS011;33688;44.354;9.228;2023-10-31T03:27:00;4.13;;;1.75;;
47922;SDS011;33688;44.354;9.228;2023-10-31T03:29:25;4.13;;;1.20;;
47922;SDS011;33688;44.354;9.228;2023-10-31T03:31:51;3.28;;;1.65;;
47922;SDS011;33688;44.354;9.228;2023-10-31T03:34:17;4.35;;;1.67;;
47922;SDS011;33688;44.354;9.228;2023-10-31T03:36:43;3.80;;;1.70;;
47922;SDS011;33688;44.354;9.228;2023-10-31T03:39:08;3.47;;;1.73;;
47922;SDS011;33688;44.354;9.228;2023-10-31T03:41:35;5.95;;;2.10;;
47922;SDS011;33688;44.354;9.228;2023-10-31T03:44:01;6.13;;;1.90;;
47922;SDS011;33688;44.354;9.228;2023-10-31T03:46:27;3.15;;;1.38;;
47922;SDS011;33688;44.354;9.228;2023-10-31T03:48:53;3.65;;;1.50;;
47922;SDS011;33688;44.354;9.228;2023-10-31T03:51:18;5.75;;;1.88;;
47922;SDS011;33688;44.354;9.228;2023-10-31T03:53:44;4.03;;;1.38;;
47922;SDS011;33688;44.354;9.228;2023-10-31T03:56:10;4.65;;;1.52;;
47922;SDS011;33688;44.354;9.228;2023-10-31T03:58:37;4.43;;;1.70;;
47922;SDS011;33688;44.354;9.228;2023-10-31T04:01:02;3.85;;;1.48;;
47922;SDS011;33688;44.354;9.228;2023-10-31T04:03:28;6.53;;;1.95;;
47922;SDS011;33688;44.354;9.228;2023-10-31T04:05:54;2.97;;;1.27;;
47922;SDS011;33688;44.354;9.228;2023-10-31T04:08:19;4.97;;;1.60;;
47922;SDS011;33688;44.354;9.228;2023-10-31T04:10:45;4.00;;;1.90;;
47922;SDS011;33688;44.354;9.228;2023-10-31T04:13:11;6.75;;;1.75;;
47922;SDS011;33688;44.354;9.228;2023-10-31T04:15:37;3.25;;;1.25;;
47922;SDS011;33688;44.354;9.228;2023-10-31T04:18:03;3.50;;;1.50;;
47922;SDS011;33688;44.354;9.228;2023-10-31T04:20:29;2.67;;;1.10;;
47922;SDS011;33688;44.354;9.228;2023-10-31T04:22:55;5.03;;;1.73;;
47922;SDS011;33688;44.354;9.228;2023-10-31T04:25:20;4.63;;;1.33;;
47922;SDS011;33688;44.354;9.228;2023-10-31T04:27:46;4.22;;;1.50;;
47922;SDS011;33688;44.354;9.228;2023-10-31T04:30:12;4.15;;;1.90;;
47922;SDS011;33688;44.354;9.228;2023-10-31T04:32:38;3.92;;;1.55;;
47922;SDS011;33688;44.354;9.228;2023-10-31T04:35:04;3.53;;;1.65;;
47922;SDS011;33688;44.354;9.228;2023-10-31T04:37:30;2.97;;;1.35;;
47922;SDS011;33688;44.354;9.228;2023-10-31T04:39:56;3.35;;;1.40;;
47922;SDS011;33688;44.354;9.228;2023-10-31T04:42:21;2.97;;;1.30;;
47922;SDS011;33688;44.354;9.228;2023-10-31T04:44:47;5.18;;;1.65;;
47922;SDS011;33688;44.354;9.228;2023-10-31T04:47:13;11.13;;;4.05;;
47922;SDS011;33688;44.354;9.228;2023-10-31T04:49:39;6.05;;;1.65;;
47922;SDS011;33688;44.354;9.228;2023-10-31T04:52:06;8.32;;;2.25;;
47922;SDS011;33688;44.354;9.228;2023-10-31T04:54:32;4.72;;;1.52;;
47922;SDS011;33688;44.354;9.228;2023-10-31T04:56:57;6.20;;;2.38;;
47922;SDS011;33688;44.354;9.228;2023-10-31T04:59:23;3.60;;;1.33;;
47922;SDS011;33688;44.354;9.228;2023-10-31T05:01:49;7.35;;;1.90;;
47922;SDS011;33688;44.354;9.228;2023-10-31T05:04:19;3.15;;;1.10;;
47922;SDS011;33688;44.354;9.228;2023-10-31T05:06:45;4.07;;;1.80;;
47922;SDS011;33688;44.354;9.228;2023-10-31T05:09:14;3.80;;;1.27;;
47922;SDS011;33688;44.354;9.228;2023-10-31T05:11:40;5.68;;;1.95;;
47922;SDS011;33688;44.354;9.228;2023-10-31T05:14:08;4.95;;;2.13;;
47922;SDS011;33688;44.354;9.228;2023-10-31T05:16:42;5.18;;;1.63;;
47922;SDS011;33688;44.354;9.228;2023-10-31T05:19:08;3.88;;;1.55;;
47922;SDS011;33688;44.354;9.228;2023-10-31T05:21:35;3.75;;;1.10;;
47922;SDS011;33688;44.354;9.228;2023-10-31T05:24:01;3.58;;;1.40;;
47922;SDS011;33688;44.354;9.228;2023-10-31T05:26:27;3.50;;;1.42;;
47922;SDS011;33688;44.354;9.228;2023-10-31T05:28:56;4.63;;;1.83;;
47922;SDS011;33688;44.354;9.228;2023-10-31T05:31:23;3.92;;;1.30;;
47922;SDS011;33688;44.354;9.228;2023-10-31T05:33:50;3.20;;;1.25;;
47922;SDS011;33688;44.354;9.228;2023-10-31T05:36:19;3.88;;;1.25;;
47922;SDS011;33688;44.354;9.228;2023-10-31T05:38:49;2.70;;;1.10;;
47922;SDS011;33688;44.354;9.228;2023-10-31T05:41:15;3.47;;;1.60;;
47922;SDS011;33688;44.354;9.228;2023-10-31T05:43:41;3.15;;;1.30;;
47922;SDS011;33688;44.354;9.228;2023-10-31T05:46:07;3.33;;;1.40;;
47922;SDS011;33688;44.354;9.228;2023-10-31T05:48:39;3.20;;;1.50;;
47922;SDS011;33688;44.354;9.228;2023-10-31T05:51:15;2.78;;;1.30;;
47922;SDS011;33688;44.354;9.228;2023-10-31T05:53:46;3.17;;;1.52;;
47922;SDS011;33688;44.354;9.228;2023-10-31T05:56:13;5.80;;;1.58;;
47922;SDS011;33688;44.354;9.228;2023-10-31T05:58:41;2.30;;;1.17;;
47922;SDS011;33688;44.354;9.228;2023-10-31T06:01:07;3.22;;;1.58;;
47922;SDS011;33688;44.354;9.228;2023-10-31T06:03:33;3.60;;;1.55;;
47922;SDS011;33688;44.354;9.228;2023-10-31T06:05:59;3.42;;;1.65;;
47922;SDS011;33688;44.354;9.228;2023-10-31T06:08:25;2.33;;;1.00;;
47922;SDS011;33688;44.354;9.228;2023-10-31T06:10:54;2.80;;;1.15;;
47922;SDS011;33688;44.354;9.228;2023-10-31T06:13:21;2.72;;;1.25;;
47922;SDS011;33688;44.354;9.228;2023-10-31T06:15:47;3.53;;;1.30;;
47922;SDS011;33688;44.354;9.228;2023-10-31T06:18:13;2.28;;;1.30;;
47922;SDS011;33688;44.354;9.228;2023-10-31T06:20:39;2.15;;;0.93;;
47922;SDS011;33688;44.354;9.228;2023-10-31T06:23:05;3.42;;;1.30;;
47922;SDS011;33688;44.354;9.228;2023-10-31T06:25:31;4.07;;;1.50;;
47922;SDS011;33688;44.354;9.228;2023-10-31T06:27:56;2.42;;;1.10;;
47922;SDS011;33688;44.354;9.228;2023-10-31T06:30:23;1.52;;;0.95;;
47922;SDS011;33688;44.354;9.228;2023-10-31T06:32:53;2.47;;;1.13;;
47922;SDS011;33688;44.354;9.228;2023-10-31T06:35:19;1.98;;;1.08;;
47922;SDS011;33688;44.354;9.228;2023-10-31T06:37:45;1.98;;;1.00;;
47922;SDS011;33688;44.354;9.228;2023-10-31T06:40:10;1.65;;;1.10;;
47922;SDS011;33688;44.354;9.228;2023-10-31T06:42:36;1.73;;;1.10;;
47922;SDS011;33688;44.354;9.228;2023-10-31T06:45:03;1.70;;;1.00;;
47922;SDS011;33688;44.354;9.228;2023-10-31T06:47:31;1.58;;;1.15;;
47922;SDS011;33688;44.354;9.228;2023-10-31T06:49:57;2.33;;;1.15;;
47922;SDS011;33688;44.354;9.228;2023-10-31T06:52:22;3.58;;;1.40;;
47922;SDS011;33688;44.354;9.228;2023-10-31T06:54:48;2.17;;;1.10;;
47922;SDS011;33688;44.354;9.228;2023-10-31T06:57:14;1.35;;;0.70;;
47922;SDS011;33688;44.354;9.228;2023-10-31T06:59:41;2.13;;;1.08;;
47922;SDS011;33688;44.354;9.228;2023-10-31T07:02:07;2.47;;;1.25;;
47922;SDS011;33688;44.354;9.228;2023-10-31T07:04:34;2.85;;;1.10;;
47922;SDS011;33688;44.354;9.228;2023-10-31T07:07:00;1.85;;;0.80;;
47922;SDS011;33688;44.354;9.228;2023-10-31T07:09:26;3.88;;;1.10;;
47922;SDS011;33688;44.354;9.228;2023-10-31T07:11:52;3.30;;;1.15;;
47922;SDS011;33688;44.354;9.228;2023-10-31T07:14:20;5.35;;;1.70;;
47922;SDS011;33688;44.354;9.228;2023-10-31T07:16:46;3.33;;;1.13;;
47922;SDS011;33688;44.354;9.228;2023-10-31T07:19:15;2.83;;;1.55;;
47922;SDS011;33688;44.354;9.228;2023-10-31T07:21:41;1.33;;;0.80;;
47922;SDS011;33688;44.354;9.228;2023-10-31T07:24:07;3.00;;;1.05;;
47922;SDS011;33688;44.354;9.228;2023-10-31T07:26:34;2.42;;;0.85;;
47922;SDS011;33688;44.354;9.228;2023-10-31T07:29:00;3.25;;;1.23;;
47922;SDS011;33688;44.354;9.228;2023-10-31T07:31:26;1.90;;;0.82;;
47922;SDS011;33688;44.354;9.228;2023-10-31T07:33:52;2.45;;;0.77;;
47922;SDS011;33688;44.354;9.228;2023-10-31T07:36:18;1.65;;;0.80;;
47922;SDS011;33688;44.354;9.228;2023-10-31T07:38:44;1.15;;;0.70;;
47922;SDS011;33688;44.354;9.228;2023-10-31T07:41:10;6.53;;;1.20;;
47922;SDS011;33688;44.354;9.228;2023-10-31T07:43:36;2.22;;;0.90;;
47922;SDS011;33688;44.354;9.228;2023-10-31T07:46:01;3.25;;;0.95;;
47922;SDS011;33688;44.354;9.228;2023-10-31T07:48:27;2.00;;;1.02;;
47922;SDS011;33688;44.354;9.228;2023-10-31T07:50:53;2.95;;;1.13;;
47922;SDS011;33688;44.354;9.228;2023-10-31T07:53:19;3.75;;;1.10;;
47922;SDS011;33688;44.354;9.228;2023-10-31T07:55:45;4.18;;;1.10;;
47922;SDS011;33688;44.354;9.228;2023-10-31T07:58:10;7.63;;;1.38;;
47922;SDS011;33688;44.354;9.228;2023-10-31T08:00:36;2.92;;;1.50;;
47922;SDS011;33688;44.354;9.228;2023-10-31T08:03:05;1.95;;;1.00;;
47922;SDS011;33688;44.354;9.228;2023-10-31T08:05:30;1.48;;;0.93;;
47922;SDS011;33688;44.354;9.228;2023-10-31T08:07:56;3.72;;;1.13;;
47922;SDS011;33688;44.354;9.228;2023-10-31T08:10:23;1.40;;;0.85;;
47922;SDS011;33688;44.354;9.228;2023-10-31T08:12:50;1.58;;;0.70;;
47922;SDS011;33688;44.354;9.228;2023-10-31T08:15:16;1.55;;;1.23;;
47922;SDS011;33688;44.354;9.228;2023-10-31T08:17:42;5.18;;;1.25;;
47922;SDS011;33688;44.354;9.228;2023-10-31T08:20:08;2.20;;;1.00;;
47922;SDS011;33688;44.354;9.228;2023-10-31T08:22:39;3.08;;;1.10;;
47922;SDS011;33688;44.354;9.228;2023-10-31T08:25:07;3.20;;;0.90;;
47922;SDS011;33688;44.354;9.228;2023-10-31T08:27:34;10.32;;;1.48;;
47922;SDS011;33688;44.354;9.228;2023-10-31T08:30:01;7.40;;;1.92;;
47922;SDS011;33688;44.354;9.228;2023-10-31T08:32:31;7.63;;;2.10;;
47922;SDS011;33688;44.354;9.228;2023-10-31T08:34:57;8.70;;;2.20;;
47922;SDS011;33688;44.354;9.228;2023-10-31T08:37:23;3.50;;;1.92;;
47922;SDS011;33688;44.354;9.228;2023-10-31T08:39:49;7.88;;;2.00;;
47922;SDS011;33688;44.354;9.228;2023-10-31T08:42:15;4.60;;;1.50;;
47922;SDS011;33688;44.354;9.228;2023-10-31T08:44:41;8.10;;;2.55;;
47922;SDS011;33688;44.354;9.228;2023-10-31T08:47:10;9.30;;;2.10;;
47922;SDS011;33688;44.354;9.228;2023-10-31T08:49:44;3.78;;;1.65;;
47922;SDS011;33688;44.354;9.228;2023-10-31T08:52:10;7.63;;;2.03;;
47922;SDS011;33688;44.354;9.228;2023-10-31T08:54:36;10.63;;;2.20;;
47922;SDS011;33688;44.354;9.228;2023-10-31T08:57:10;7.57;;;2.13;;
47922;SDS011;33688;44.354;9.228;2023-10-31T08:59:36;7.95;;;2.20;;
47922;SDS011;33688;44.354;9.228;2023-10-31T09:02:02;6.68;;;2.17;;
47922;SDS011;33688;44.354;9.228;2023-10-31T09:04:28;5.20;;;1.95;;
47922;SDS011;33688;44.354;9.228;2023-10-31T09:06:54;9.98;;;1.85;;
47922;SDS011;33688;44.354;9.228;2023-10-31T09:09:20;6.18;;;1.50;;
47922;SDS011;33688;44.354;9.228;2023-10-31T09:11:47;3.42;;;1.40;;
47922;SDS011;33688;44.354;9.228;2023-10-31T09:14:13;4.30;;;1.92;;
47922;SDS011;33688;44.354;9.228;2023-10-31T09:16:39;2.45;;;1.45;;
47922;SDS011;33688;44.354;9.228;2023-10-31T09:19:04;4.05;;;1.85;;
47922;SDS011;33688;44.354;9.228;2023-10-31T09:21:30;3.22;;;1.45;;
47922;SDS011;33688;44.354;9.228;2023-10-31T09:23:56;3.28;;;1.45;;
47922;SDS011;33688;44.354;9.228;2023-10-31T09:26:21;4.38;;;1.27;;
47922;SDS011;33688;44.354;9.228;2023-10-31T09:28:47;5.70;;;1.70;;
47922;SDS011;33688;44.354;9.228;2023-10-31T09:31:18;4.47;;;1.35;;
47922;SDS011;33688;44.354;9.228;2023-10-31T09:33:45;3.95;;;1.40;;
47922;SDS011;33688;44.354;9.228;2023-10-31T09:36:11;2.53;;;1.35;;
47922;SDS011;33688;44.354;9.228;2023-10-31T09:38:39;5.05;;;1.70;;
47922;SDS011;33688;44.354;9.228;2023-10-31T09:41:06;6.57;;;1.63;;
47922;SDS011;33688;44.354;9.228;2023-10-31T09:43:32;3.70;;;1.40;;
47922;SDS011;33688;44.354;9.228;2023-10-31T09:45:58;7.47;;;2.03;;
47922;SDS011;33688;44.354;9.228;2023-10-31T09:48:25;6.55;;;1.33;;
47922;SDS011;33688;44.354;9.228;2023-10-31T09:50:51;2.88;;;1.33;;
47922;SDS011;33688;44.354;9.228;2023-10-31T09:53:19;2.15;;;1.45;;
47922;SDS011;33688;44.354;9.228;2023-10-31T09:55:49;6.00;;;1.50;;
47922;SDS011;33688;44.354;9.228;2023-10-31T09:58:18;3.30;;;1.15;;
47922;SDS011;33688;44.354;9.228;2023-10-31T10:00:44;4.35;;;1.58;;
47922;SDS011;33688;44.354;9.228;2023-10-31T10:05:59;3.42;;;1.95;;
47922;SDS011;33688;44.354;9.228;2023-10-31T10:08:28;3.47;;;1.50;;
47922;SDS011;33688;44.354;9.228;2023-10-31T10:10:54;7.65;;;1.80;;
47922;SDS011;33688;44.354;9.228;2023-10-31T10:13:21;4.20;;;1.80;;
47922;SDS011;33688;44.354;9.228;2023-10-31T10:15:50;11.18;;;1.75;;
47922;SDS011;33688;44.354;9.228;2023-10-31T10:18:27;9.15;;;2.58;;
47922;SDS011;33688;44.354;9.228;2023-10-31T10:21:03;7.65;;;1.70;;
47922;SDS011;33688;44.354;9.228;2023-10-31T10:23:31;4.32;;;1.40;;
47922;SDS011;33688;44.354;9.228;2023-10-31T10:25:58;5.85;;;1.98;;
47922;SDS011;33688;44.354;9.228;2023-10-31T10:28:26;5.28;;;1.25;;
47922;SDS011;33688;44.354;9.228;2023-10-31T10:30:55;9.93;;;1.70;;
47922;SDS011;33688;44.354;9.228;2023-10-31T10:33:21;4.90;;;1.52;;
47922;SDS011;33688;44.354;9.228;2023-10-31T10:35:48;3.15;;;1.40;;
47922;SDS011;33688;44.354;9.228;2023-10-31T10:38:15;8.50;;;2.03;;
47922;SDS011;33688;44.354;9.228;2023-10-31T10:40:47;3.30;;;1.48;;
47922;SDS011;33688;44.354;9.228;2023-10-31T10:43:22;6.03;;;1.90;;
47922;SDS011;33688;44.354;9.228;2023-10-31T10:45:56;2.05;;;1.15;;
47922;SDS011;33688;44.354;9.228;2023-10-31T10:48:25;15.13;;;1.40;;
47922;SDS011;33688;44.354;9.228;2023-10-31T10:51:03;7.20;;;1.20;;
47922;SDS011;33688;44.354;9.228;2023-10-31T10:56:28;7.05;;;1.30;;
47922;SDS011;33688;44.354;9.228;2023-10-31T10:59:25;8.30;;;2.10;;
47922;SDS011;33688;44.354;9.228;2023-10-31T11:02:04;11.73;;;2.00;;
47922;SDS011;33688;44.354;9.228;2023-10-31T11:04:31;5.97;;;1.67;;
47922;SDS011;33688;44.354;9.228;2023-10-31T11:06:59;7.32;;;1.90;;
47922;SDS011;33688;44.354;9.228;2023-10-31T11:09:26;7.43;;;1.98;;
47922;SDS011;33688;44.354;9.228;2023-10-31T11:11:53;8.57;;;2.13;;
47922;SDS011;33688;44.354;9.228;2023-10-31T11:14:19;5.38;;;1.90;;
47922;SDS011;33688;44.354;9.228;2023-10-31T11:16:52;8.35;;;2.10;;
47922;SDS011;33688;44.354;9.228;2023-10-31T11:19:22;8.32;;;2.00;;
47922;SDS011;33688;44.354;9.228;2023-10-31T11:24:28;6.10;;;1.90;;
47922;SDS011;33688;44.354;9.228;2023-10-31T11:27:00;6.93;;;1.90;;
47922;SDS011;33688;44.354;9.228;2023-10-31T11:29:28;6.70;;;1.80;;
47922;SDS011;33688;44.354;9.228;2023-10-31T11:32:01;7.13;;;1.95;;
47922;SDS011;33688;44.354;9.228;2023-10-31T11:34:27;14.77;;;1.65;;
47922;SDS011;33688;44.354;9.228;2023-10-31T11:42:38;8.25;;;2.70;;
47922;SDS011;33688;44.354;9.228;2023-10-31T11:45:09;10.75;;;1.60;;
47922;SDS011;33688;44.354;9.228;2023-10-31T11:47:49;8.45;;;1.98;;
47922;SDS011;33688;44.354;9.228;2023-10-31T11:50:16;7.40;;;1.45;;
47922;SDS011;33688;44.354;9.228;2023-10-31T11:52:44;4.80;;;1.17;;
47922;SDS011;33688;44.354;9.228;2023-10-31T11:55:10;6.78;;;1.65;;
47922;SDS011;33688;44.354;9.228;2023-10-31T11:57:38;8.80;;;1.83;;
47922;SDS011;33688;44.354;9.228;2023-10-31T12:00:05;5.38;;;1.45;;
47922;SDS011;33688;44.354;9.228;2023-10-31T12:02:38;8.98;;;2.35;;
47922;SDS011;33688;44.354;9.228;2023-10-31T12:05:10;11.63;;;2.60;;
47922;SDS011;33688;44.354;9.228;2023-10-31T12:07:44;6.05;;;2.38;;
47922;SDS011;33688;44.354;9.228;2023-10-31T12:10:11;13.05;;;2.42;;
47922;SDS011;33688;44.354;9.228;2023-10-31T12:12:38;8.13;;;2.05;;
47922;SDS011;33688;44.354;9.228;2023-10-31T12:15:07;8.45;;;2.58;;
47922;SDS011;33688;44.354;9.228;2023-10-31T12:17:35;10.10;;;2.70;;
47922;SDS011;33688;44.354;9.228;2023-10-31T12:20:05;13.90;;;2.75;;
47922;SDS011;33688;44.354;9.228;2023-10-31T12:22:32;12.20;;;2.47;;
47922;SDS011;33688;44.354;9.228;2023-10-31T12:25:07;7.20;;;1.85;;
47922;SDS011;33688;44.354;9.228;2023-10-31T12:27:45;14.00;;;3.13;;
47922;SDS011;33688;44.354;9.228;2023-10-31T12:30:19;13.38;;;2.15;;
47922;SDS011;33688;44.354;9.228;2023-10-31T12:32:55;10.30;;;2.35;;
47922;SDS011;33688;44.354;9.228;2023-10-31T12:35:23;12.55;;;2.25;;
47922;SDS011;33688;44.354;9.228;2023-10-31T12:40:37;9.35;;;2.30;;
47922;SDS011;33688;44.354;9.228;2023-10-31T12:43:10;10.60;;;2.38;;
47922;SDS011;33688;44.354;9.228;2023-10-31T12:45:36;10.32;;;2.80;;
47922;SDS011;33688;44.354;9.228;2023-10-31T12:48:03;7.47;;;2.72;;
47922;SDS011;33688;44.354;9.228;2023-10-31T12:50:35;7.72;;;1.83;;
47922;SDS011;33688;44.354;9.228;2023-10-31T12:53:03;9.70;;;3.03;;
47922;SDS011;33688;44.354;9.228;2023-10-31T12:55:30;13.80;;;2.85;;
47922;SDS011;33688;44.354;9.228;2023-10-31T12:58:05;11.20;;;3.03;;
47922;SDS011;33688;44.354;9.228;2023-10-31T13:00:32;6.30;;;2.03;;
47922;SDS011;33688;44.354;9.228;2023-10-31T13:03:00;8.65;;;2.08;;
47922;SDS011;33688;44.354;9.228;2023-10-31T13:05:33;8.63;;;2.60;;
47922;SDS011;33688;44.354;9.228;2023-10-31T13:07:59;20.20;;;2.90;;
47922;SDS011;33688;44.354;9.228;2023-10-31T13:10:28;10.50;;;2.67;;
47922;SDS011;33688;44.354;9.228;2023-10-31T13:12:54;8.13;;;2.35;;
47922;SDS011;33688;44.354;9.228;2023-10-31T13:15:22;6.93;;;1.77;;
47922;SDS011;33688;44.354;9.228;2023-10-31T13:17:49;6.63;;;2.15;;
47922;SDS011;33688;44.354;9.228;2023-10-31T13:20:16;8.40;;;1.83;;
47922;SDS011;33688;44.354;9.228;2023-10-31T13:22:44;9.38;;;1.90;;
47922;SDS011;33688;44.354;9.228;2023-10-31T13:25:11;11.18;;;2.40;;
47922;SDS011;33688;44.354;9.228;2023-10-31T13:27:39;11.70;;;2.47;;
47922;SDS011;33688;44.354;9.228;2023-10-31T13:30:08;6.07;;;2.05;;
47922;SDS011;33688;44.354;9.228;2023-10-31T13:32:36;9.45;;;2.45;;
47922;SDS011;33688;44.354;9.228;2023-10-31T13:35:06;7.78;;;2.10;;
47922;SDS011;33688;44.354;9.228;2023-10-31T13:37:36;17.95;;;2.65;;
47922;SDS011;33688;44.354;9.228;2023-10-31T13:40:02;8.40;;;2.50;;
47922;SDS011;33688;44.354;9.228;2023-10-31T13:42:29;12.27;;;2.88;;
47922;SDS011;33688;44.354;9.228;2023-10-31T13:47:48;11.45;;;2.15;;
47922;SDS011;33688;44.354;9.228;2023-10-31T13:50:13;10.27;;;3.25;;
47922;SDS011;33688;44.354;9.228;2023-10-31T13:52:41;8.40;;;2.40;;
47922;SDS011;33688;44.354;9.228;2023-10-31T13:55:07;13.75;;;2.90;;
47922;SDS011;33688;44.354;9.228;2023-10-31T13:57:33;10.10;;;2.25;;
47922;SDS011;33688;44.354;9.228;2023-10-31T13:59:59;10.80;;;2.95;;
47922;SDS011;33688;44.354;9.228;2023-10-31T14:02:25;5.95;;;2.00;;
47922;SDS011;33688;44.354;9.228;2023-10-31T14:04:53;11.23;;;2.42;;
47922;SDS011;33688;44.354;9.228;2023-10-31T14:07:20;13.60;;;3.22;;
47922;SDS011;33688;44.354;9.228;2023-10-31T14:09:50;8.15;;;2.10;;
47922;SDS011;33688;44.354;9.228;2023-10-31T14:12:18;13.65;;;2.30;;
47922;SDS011;33688;44.354;9.228;2023-10-31T14:14:44;8.80;;;2.22;;
47922;SDS011;33688;44.354;9.228;2023-10-31T14:17:13;5.97;;;2.15;;
47922;SDS011;33688;44.354;9.228;2023-10-31T14:19:42;5.25;;;2.15;;
47922;SDS011;33688;44.354;9.228;2023-10-31T14:22:09;12.82;;;2.90;;
47922;SDS011;33688;44.354;9.228;2023-10-31T14:24:39;5.38;;;1.67;;
47922;SDS011;33688;44.354;9.228;2023-10-31T14:27:06;8.90;;;1.88;;
47922;SDS011;33688;44.354;9.228;2023-10-31T14:29:32;13.73;;;2.70;;
47922;SDS011;33688;44.354;9.228;2023-10-31T14:32:09;6.53;;;2.08;;
47922;SDS011;33688;44.354;9.228;2023-10-31T14:34:35;12.43;;;2.70;;
47922;SDS011;33688;44.354;9.228;2023-10-31T14:37:01;9.38;;;2.50;;
47922;SDS011;33688;44.354;9.228;2023-10-31T14:39:27;8.60;;;2.05;;
47922;SDS011;33688;44.354;9.228;2023-10-31T14:41:53;7.82;;;2.17;;
47922;SDS011;33688;44.354;9.228;2023-10-31T14:44:18;9.88;;;2.35;;
47922;SDS011;33688;44.354;9.228;2023-10-31T14:46:46;8.50;;;2.15;;
47922;SDS011;33688;44.354;9.228;2023-10-31T14:49:12;9.35;;;2.03;;
47922;SDS011;33688;44.354;9.228;2023-10-31T14:51:38;10.00;;;2.60;;
47922;SDS011;33688;44.354;9.228;2023-10-31T14:54:07;10.88;;;2.38;;
47922;SDS011;33688;44.354;9.228;2023-10-31T14:56:33;7.82;;;2.13;;
47922;SDS011;33688;44.354;9.228;2023-10-31T14:59:00;8.15;;;2.63;;
47922;SDS011;33688;44.354;9.228;2023-10-31T15:01:29;9.40;;;2.45;;
47922;SDS011;33688;44.354;9.228;2023-10-31T15:03:55;8.73;;;2.95;;
47922;SDS011;33688;44.354;9.228;2023-10-31T15:06:21;7.65;;;2.10;;